sensor_id;sensor_type;location;lat;lon;timestamp;temperature;humidity
42803;DHT22;28447;48.682;9.022;2022-08-03T00:01:27;17.80;99.90
42803;DHT22;28447;48.682;9.022;2022-08-03T00:03:53;17.40;99.90
42803;DHT22;28447;48.682;9.022;2022-08-03T00:42:54;17.40;99.90
42803;DHT22;28447;48.682;9.022;2022-08-03T00:45:26;17.50;99.90
42803;DHT22;28447;48.682;9.022;2022-08-03T00:47:53;17.20;99.90
42803;DHT22;28447;48.682;9.022;2022-08-03T00:50:20;17.30;99.90
42803;DHT22;28447;48.682;9.022;2022-08-03T00:52:52;17.00;99.90
42803;DHT22;28447;48.682;9.022;2022-08-03T00:57:44;17.20;99.90
42803;DHT22;28447;48.682;9.022;2022-08-03T01:00:12;17.20;99.90
42803;DHT22;28447;48.682;9.022;2022-08-03T01:02:38;17.00;99.90
42803;DHT22;28447;48.682;9.022;2022-08-03T01:07:40;17.20;99.90
42803;DHT22;28447;48.682;9.022;2022-08-03T01:13:20;16.80;99.90
42803;DHT22;28447;48.682;9.022;2022-08-03T01:16:06;17.20;99.90
42803;DHT22;28447;48.682;9.022;2022-08-03T01:21:09;16.90;99.90
42803;DHT22;28447;48.682;9.022;2022-08-03T01:26:35;16.30;99.90
42803;DHT22;28447;48.682;9.022;2022-08-03T01:29:34;16.80;99.90
42803;DHT22;28447;48.682;9.022;2022-08-03T01:32:04;16.90;99.90
42803;DHT22;28447;48.682;9.022;2022-08-03T01:34:35;17.20;99.90
42803;DHT22;28447;48.682;9.022;2022-08-03T01:37:06;16.70;99.90
42803;DHT22;28447;48.682;9.022;2022-08-03T01:39:35;16.30;99.90
42803;DHT22;28447;48.682;9.022;2022-08-03T01:42:04;16.30;99.90
42803;DHT22;28447;48.682;9.022;2022-08-03T01:44:36;16.30;99.90
42803;DHT22;28447;48.682;9.022;2022-08-03T01:47:03;16.60;99.90
42803;DHT22;28447;48.682;9.022;2022-08-03T01:49:34;17.20;99.90
42803;DHT22;28447;48.682;9.022;2022-08-03T01:52:02;16.80;99.90
42803;DHT22;28447;48.682;9.022;2022-08-03T01:54:29;16.60;99.90
42803;DHT22;28447;48.682;9.022;2022-08-03T01:56:56;17.00;99.90
42803;DHT22;28447;48.682;9.022;2022-08-03T01:59:24;17.00;99.90
42803;DHT22;28447;48.682;9.022;2022-08-03T02:01:51;16.70;99.90
42803;DHT22;28447;48.682;9.022;2022-08-03T02:04:18;17.00;99.90
42803;DHT22;28447;48.682;9.022;2022-08-03T02:06:46;16.60;99.90
42803;DHT22;28447;48.682;9.022;2022-08-03T02:09:14;16.80;99.90
42803;DHT22;28447;48.682;9.022;2022-08-03T02:11:41;16.80;99.90
42803;DHT22;28447;48.682;9.022;2022-08-03T02:14:08;16.70;99.90
42803;DHT22;28447;48.682;9.022;2022-08-03T02:16:35;16.50;99.90
42803;DHT22;28447;48.682;9.022;2022-08-03T02:19:03;16.40;99.90
42803;DHT22;28447;48.682;9.022;2022-08-03T02:21:32;16.40;99.90
42803;DHT22;28447;48.682;9.022;2022-08-03T02:26:28;16.70;99.90
42803;DHT22;28447;48.682;9.022;2022-08-03T02:28:55;16.10;99.90
42803;DHT22;28447;48.682;9.022;2022-08-03T02:31:23;16.90;99.90
42803;DHT22;28447;48.682;9.022;2022-08-03T02:33:58;16.30;99.90
42803;DHT22;28447;48.682;9.022;2022-08-03T02:36:28;16.30;99.90
42803;DHT22;28447;48.682;9.022;2022-08-03T02:38:58;16.30;99.90
42803;DHT22;28447;48.682;9.022;2022-08-03T02:41:34;16.30;99.90
42803;DHT22;28447;48.682;9.022;2022-08-03T02:44:06;16.30;99.90
42803;DHT22;28447;48.682;9.022;2022-08-03T02:46:36;16.20;99.90
42803;DHT22;28447;48.682;9.022;2022-08-03T02:49:04;16.30;99.90
42803;DHT22;28447;48.682;9.022;2022-08-03T02:51:33;16.40;99.90
42803;DHT22;28447;48.682;9.022;2022-08-03T02:54:01;16.30;99.90
42803;DHT22;28447;48.682;9.022;2022-08-03T02:56:27;15.90;99.90
42803;DHT22;28447;48.682;9.022;2022-08-03T02:58:55;16.20;99.90
42803;DHT22;28447;48.682;9.022;2022-08-03T03:01:22;16.80;99.90
42803;DHT22;28447;48.682;9.022;2022-08-03T03:03:50;16.60;99.90
42803;DHT22;28447;48.682;9.022;2022-08-03T03:06:17;16.50;99.90
42803;DHT22;28447;48.682;9.022;2022-08-03T03:08:45;16.00;99.90
42803;DHT22;28447;48.682;9.022;2022-08-03T03:11:13;16.20;99.90
42803;DHT22;28447;48.682;9.022;2022-08-03T03:13:41;15.90;99.90
42803;DHT22;28447;48.682;9.022;2022-08-03T03:16:09;16.30;99.90
42803;DHT22;28447;48.682;9.022;2022-08-03T03:18:37;16.20;99.90
42803;DHT22;28447;48.682;9.022;2022-08-03T03:21:03;16.00;99.90
42803;DHT22;28447;48.682;9.022;2022-08-03T03:23:30;15.70;99.90
42803;DHT22;28447;48.682;9.022;2022-08-03T03:25:56;15.80;99.90
42803;DHT22;28447;48.682;9.022;2022-08-03T03:28:23;15.70;99.90
42803;DHT22;28447;48.682;9.022;2022-08-03T03:35:42;15.50;99.90
42803;DHT22;28447;48.682;9.022;2022-08-03T03:38:10;15.60;99.90
42803;DHT22;28447;48.682;9.022;2022-08-03T03:40:36;16.40;99.90
42803;DHT22;28447;48.682;9.022;2022-08-03T03:43:06;16.10;99.90
42803;DHT22;28447;48.682;9.022;2022-08-03T03:45:33;16.10;99.90
42803;DHT22;28447;48.682;9.022;2022-08-03T03:48:01;15.80;99.90
42803;DHT22;28447;48.682;9.022;2022-08-03T03:50:30;16.40;99.90
42803;DHT22;28447;48.682;9.022;2022-08-03T03:55:22;15.60;99.90
42803;DHT22;28447;48.682;9.022;2022-08-03T03:57:48;16.90;99.90
42803;DHT22;28447;48.682;9.022;2022-08-03T04:00:15;16.10;99.90
42803;DHT22;28447;48.682;9.022;2022-08-03T04:05:07;15.80;99.90
42803;DHT22;28447;48.682;9.022;2022-08-03T04:08:02;16.00;99.90
42803;DHT22;28447;48.682;9.022;2022-08-03T04:11:02;16.00;99.90
42803;DHT22;28447;48.682;9.022;2022-08-03T04:13:38;16.00;99.90
42803;DHT22;28447;48.682;9.022;2022-08-03T04:16:06;15.80;99.90
42803;DHT22;28447;48.682;9.022;2022-08-03T04:18:33;16.00;99.90
42803;DHT22;28447;48.682;9.022;2022-08-03T04:21:02;15.90;99.90
42803;DHT22;28447;48.682;9.022;2022-08-03T04:23:30;15.90;99.90
42803;DHT22;28447;48.682;9.022;2022-08-03T04:26:01;16.00;99.90
42803;DHT22;28447;48.682;9.022;2022-08-03T04:28:29;15.50;99.90
42803;DHT22;28447;48.682;9.022;2022-08-03T04:30:56;17.40;99.90
42803;DHT22;28447;48.682;9.022;2022-08-03T04:33:25;16.10;99.90
42803;DHT22;28447;48.682;9.022;2022-08-03T04:35:53;16.00;99.90
42803;DHT22;28447;48.682;9.022;2022-08-03T04:38:20;16.50;99.90
42803;DHT22;28447;48.682;9.022;2022-08-03T04:43:16;15.90;99.90
42803;DHT22;28447;48.682;9.022;2022-08-03T04:45:42;16.10;99.90
42803;DHT22;28447;48.682;9.022;2022-08-03T04:48:13;16.30;99.90
42803;DHT22;28447;48.682;9.022;2022-08-03T04:50:40;16.80;99.90
42803;DHT22;28447;48.682;9.022;2022-08-03T04:53:06;16.10;99.90
42803;DHT22;28447;48.682;9.022;2022-08-03T04:55:33;16.50;99.90
42803;DHT22;28447;48.682;9.022;2022-08-03T05:00:25;16.80;99.90
42803;DHT22;28447;48.682;9.022;2022-08-03T05:12:39;17.30;99.90
42803;DHT22;28447;48.682;9.022;2022-08-03T05:15:06;16.80;99.90
42803;DHT22;28447;48.682;9.022;2022-08-03T05:17:32;16.80;99.90
42803;DHT22;28447;48.682;9.022;2022-08-03T05:22:28;17.20;99.90
42803;DHT22;28447;48.682;9.022;2022-08-03T05:24:54;17.30;99.90
42803;DHT22;28447;48.682;9.022;2022-08-03T05:27:19;18.00;99.90
42803;DHT22;28447;48.682;9.022;2022-08-03T05:29:46;17.90;99.90
42803;DHT22;28447;48.682;9.022;2022-08-03T05:32:12;18.20;99.90
42803;DHT22;28447;48.682;9.022;2022-08-03T05:34:38;17.70;99.90
42803;DHT22;28447;48.682;9.022;2022-08-03T05:37:04;17.90;99.90
42803;DHT22;28447;48.682;9.022;2022-08-03T05:41:55;18.70;99.90
42803;DHT22;28447;48.682;9.022;2022-08-03T05:44:21;19.20;99.90
42803;DHT22;28447;48.682;9.022;2022-08-03T05:49:16;19.60;99.90
42803;DHT22;28447;48.682;9.022;2022-08-03T06:08:44;20.10;99.90
42803;DHT22;28447;48.682;9.022;2022-08-03T06:16:03;20.50;99.90
42803;DHT22;28447;48.682;9.022;2022-08-03T06:18:29;20.60;99.90
42803;DHT22;28447;48.682;9.022;2022-08-03T06:20:54;21.40;99.90
42803;DHT22;28447;48.682;9.022;2022-08-03T06:23:20;21.00;99.90
42803;DHT22;28447;48.682;9.022;2022-08-03T06:30:39;20.80;99.90
42803;DHT22;28447;48.682;9.022;2022-08-03T06:33:05;21.70;99.90
42803;DHT22;28447;48.682;9.022;2022-08-03T06:37:56;21.40;99.90
42803;DHT22;28447;48.682;9.022;2022-08-03T06:40:23;21.80;99.90
42803;DHT22;28447;48.682;9.022;2022-08-03T06:43:00;22.10;99.90
42803;DHT22;28447;48.682;9.022;2022-08-03T06:45:27;22.60;99.90
42803;DHT22;28447;48.682;9.022;2022-08-03T06:48:07;22.60;99.90
42803;DHT22;28447;48.682;9.022;2022-08-03T06:50:34;22.60;99.90
42803;DHT22;28447;48.682;9.022;2022-08-03T06:53:02;23.20;99.90
42803;DHT22;28447;48.682;9.022;2022-08-03T06:55:27;23.40;99.90
42803;DHT22;28447;48.682;9.022;2022-08-03T06:57:53;23.30;99.90
42803;DHT22;28447;48.682;9.022;2022-08-03T07:02:45;23.20;99.90
42803;DHT22;28447;48.682;9.022;2022-08-03T07:10:05;23.50;99.90
42803;DHT22;28447;48.682;9.022;2022-08-03T07:14:58;24.00;99.90
42803;DHT22;28447;48.682;9.022;2022-08-03T07:17:24;24.10;99.90
42803;DHT22;28447;48.682;9.022;2022-08-03T07:22:16;25.00;99.90
42803;DHT22;28447;48.682;9.022;2022-08-03T07:24:42;24.90;99.90
42803;DHT22;28447;48.682;9.022;2022-08-03T07:27:08;25.40;99.90
42803;DHT22;28447;48.682;9.022;2022-08-03T07:29:35;25.30;99.90
42803;DHT22;28447;48.682;9.022;2022-08-03T07:32:01;26.10;99.90
42803;DHT22;28447;48.682;9.022;2022-08-03T07:36:53;25.20;99.90
42803;DHT22;28447;48.682;9.022;2022-08-03T07:41:45;26.40;99.90
42803;DHT22;28447;48.682;9.022;2022-08-03T07:44:12;26.80;99.90
42803;DHT22;28447;48.682;9.022;2022-08-03T07:46:37;26.50;99.90
42803;DHT22;28447;48.682;9.022;2022-08-03T07:49:03;26.80;99.90
42803;DHT22;28447;48.682;9.022;2022-08-03T07:51:29;27.60;99.90
42803;DHT22;28447;48.682;9.022;2022-08-03T07:53:55;27.20;99.90
42803;DHT22;28447;48.682;9.022;2022-08-03T07:56:22;27.50;99.90
42803;DHT22;28447;48.682;9.022;2022-08-03T07:58:50;27.50;99.90
42803;DHT22;28447;48.682;9.022;2022-08-03T08:01:16;28.00;99.90
42803;DHT22;28447;48.682;9.022;2022-08-03T08:03:46;27.90;99.90
42803;DHT22;28447;48.682;9.022;2022-08-03T08:06:12;27.70;99.90
42803;DHT22;28447;48.682;9.022;2022-08-03T08:08:39;28.20;99.90
42803;DHT22;28447;48.682;9.022;2022-08-03T08:11:05;28.30;99.90
42803;DHT22;28447;48.682;9.022;2022-08-03T08:13:31;28.50;99.90
42803;DHT22;28447;48.682;9.022;2022-08-03T08:18:23;29.30;99.90
42803;DHT22;28447;48.682;9.022;2022-08-03T08:20:49;29.00;99.90
42803;DHT22;28447;48.682;9.022;2022-08-03T08:23:15;28.90;99.90
42803;DHT22;28447;48.682;9.022;2022-08-03T08:25:47;29.30;99.90
42803;DHT22;28447;48.682;9.022;2022-08-03T08:28:13;29.20;99.90
42803;DHT22;28447;48.682;9.022;2022-08-03T08:30:39;29.40;99.90
42803;DHT22;28447;48.682;9.022;2022-08-03T08:33:04;29.60;99.90
42803;DHT22;28447;48.682;9.022;2022-08-03T08:35:30;30.00;99.90
42803;DHT22;28447;48.682;9.022;2022-08-03T08:37:58;29.90;99.90
42803;DHT22;28447;48.682;9.022;2022-08-03T08:40:24;30.20;99.90
42803;DHT22;28447;48.682;9.022;2022-08-03T08:42:50;29.00;99.90
42803;DHT22;28447;48.682;9.022;2022-08-03T08:47:45;29.90;99.90
42803;DHT22;28447;48.682;9.022;2022-08-03T08:50:12;30.00;99.90
42803;DHT22;28447;48.682;9.022;2022-08-03T08:52:41;29.70;99.90
42803;DHT22;28447;48.682;9.022;2022-08-03T08:55:09;30.20;99.90
42803;DHT22;28447;48.682;9.022;2022-08-03T08:57:52;30.70;99.90
42803;DHT22;28447;48.682;9.022;2022-08-03T09:00:21;30.20;99.90
42803;DHT22;28447;48.682;9.022;2022-08-03T09:02:47;29.80;99.90
42803;DHT22;28447;48.682;9.022;2022-08-03T09:05:17;29.70;99.90
42803;DHT22;28447;48.682;9.022;2022-08-03T09:07:46;30.70;99.90
42803;DHT22;28447;48.682;9.022;2022-08-03T09:10:14;30.30;99.90
42803;DHT22;28447;48.682;9.022;2022-08-03T09:12:48;31.50;99.90
42803;DHT22;28447;48.682;9.022;2022-08-03T09:15:20;31.00;99.90
42803;DHT22;28447;48.682;9.022;2022-08-03T09:22:59;32.00;99.90
42803;DHT22;28447;48.682;9.022;2022-08-03T09:25:35;30.30;99.90
42803;DHT22;28447;48.682;9.022;2022-08-03T09:28:05;31.70;99.90
42803;DHT22;28447;48.682;9.022;2022-08-03T09:33:02;33.00;99.90
42803;DHT22;28447;48.682;9.022;2022-08-03T09:38:11;31.40;99.90
42803;DHT22;28447;48.682;9.022;2022-08-03T09:48:25;33.40;97.80
42803;DHT22;28447;48.682;9.022;2022-08-03T09:50:55;32.90;99.90
42803;DHT22;28447;48.682;9.022;2022-08-03T09:56:05;33.60;99.90
42803;DHT22;28447;48.682;9.022;2022-08-03T10:01:02;32.20;92.30
42803;DHT22;28447;48.682;9.022;2022-08-03T10:03:37;30.90;94.40
42803;DHT22;28447;48.682;9.022;2022-08-03T10:06:19;32.20;97.70
42803;DHT22;28447;48.682;9.022;2022-08-03T10:08:49;32.80;98.10
42803;DHT22;28447;48.682;9.022;2022-08-03T10:11:29;33.30;99.20
42803;DHT22;28447;48.682;9.022;2022-08-03T10:13:55;33.00;95.60
42803;DHT22;28447;48.682;9.022;2022-08-03T10:16:21;33.50;94.90
42803;DHT22;28447;48.682;9.022;2022-08-03T10:18:47;33.80;93.20
42803;DHT22;28447;48.682;9.022;2022-08-03T10:21:16;33.40;95.70
42803;DHT22;28447;48.682;9.022;2022-08-03T10:23:43;33.10;92.50
42803;DHT22;28447;48.682;9.022;2022-08-03T10:26:12;33.00;94.90
42803;DHT22;28447;48.682;9.022;2022-08-03T10:28:40;33.70;94.80
42803;DHT22;28447;48.682;9.022;2022-08-03T10:31:07;35.60;91.40
42803;DHT22;28447;48.682;9.022;2022-08-03T10:33:37;35.10;93.30
42803;DHT22;28447;48.682;9.022;2022-08-03T10:36:07;35.10;90.20
42803;DHT22;28447;48.682;9.022;2022-08-03T10:38:46;35.50;91.00
42803;DHT22;28447;48.682;9.022;2022-08-03T10:41:19;36.40;91.00
42803;DHT22;28447;48.682;9.022;2022-08-03T10:43:57;35.80;90.60
42803;DHT22;28447;48.682;9.022;2022-08-03T10:46:23;36.50;90.70
42803;DHT22;28447;48.682;9.022;2022-08-03T10:48:50;37.10;83.80
42803;DHT22;28447;48.682;9.022;2022-08-03T10:51:18;35.90;86.00
42803;DHT22;28447;48.682;9.022;2022-08-03T10:53:44;36.20;84.30
42803;DHT22;28447;48.682;9.022;2022-08-03T11:02:09;34.60;86.50
42803;DHT22;28447;48.682;9.022;2022-08-03T11:04:36;34.60;88.80
42803;DHT22;28447;48.682;9.022;2022-08-03T11:07:21;34.70;87.00
42803;DHT22;28447;48.682;9.022;2022-08-03T11:09:54;35.00;90.60
42803;DHT22;28447;48.682;9.022;2022-08-03T11:12:28;35.20;89.40
42803;DHT22;28447;48.682;9.022;2022-08-03T11:14:55;35.50;85.60
42803;DHT22;28447;48.682;9.022;2022-08-03T11:35:12;34.30;80.30
42803;DHT22;28447;48.682;9.022;2022-08-03T11:46:14;37.60;80.30
42803;DHT22;28447;48.682;9.022;2022-08-03T11:48:47;37.80;75.70
42803;DHT22;28447;48.682;9.022;2022-08-03T11:51:27;37.70;73.10
42803;DHT22;28447;48.682;9.022;2022-08-03T11:54:02;35.40;73.70
42803;DHT22;28447;48.682;9.022;2022-08-03T11:56:42;35.00;75.40
42803;DHT22;28447;48.682;9.022;2022-08-03T11:59:08;36.00;74.90
42803;DHT22;28447;48.682;9.022;2022-08-03T12:01:34;35.60;74.10
42803;DHT22;28447;48.682;9.022;2022-08-03T12:04:03;38.10;72.10
42803;DHT22;28447;48.682;9.022;2022-08-03T12:06:29;37.10;71.60
42803;DHT22;28447;48.682;9.022;2022-08-03T12:08:55;35.70;73.10
42803;DHT22;28447;48.682;9.022;2022-08-03T12:11:20;36.30;74.10
42803;DHT22;28447;48.682;9.022;2022-08-03T12:13:48;36.50;75.60
42803;DHT22;28447;48.682;9.022;2022-08-03T12:16:20;37.70;73.00
42803;DHT22;28447;48.682;9.022;2022-08-03T12:19:00;39.40;72.40
42803;DHT22;28447;48.682;9.022;2022-08-03T12:21:27;40.00;71.80
42803;DHT22;28447;48.682;9.022;2022-08-03T12:24:01;41.70;68.30
42803;DHT22;28447;48.682;9.022;2022-08-03T12:26:28;40.80;69.90
42803;DHT22;28447;48.682;9.022;2022-08-03T12:28:54;39.70;70.10
42803;DHT22;28447;48.682;9.022;2022-08-03T12:31:20;41.20;68.70
42803;DHT22;28447;48.682;9.022;2022-08-03T12:34:03;40.80;65.30
42803;DHT22;28447;48.682;9.022;2022-08-03T12:36:33;41.00;68.50
42803;DHT22;28447;48.682;9.022;2022-08-03T12:39:04;40.70;66.30
42803;DHT22;28447;48.682;9.022;2022-08-03T12:41:39;38.90;65.30
42803;DHT22;28447;48.682;9.022;2022-08-03T12:44:07;39.10;66.90
42803;DHT22;28447;48.682;9.022;2022-08-03T12:46:35;39.10;71.30
42803;DHT22;28447;48.682;9.022;2022-08-03T12:49:04;39.10;71.80
42803;DHT22;28447;48.682;9.022;2022-08-03T12:51:33;41.80;63.70
42803;DHT22;28447;48.682;9.022;2022-08-03T12:53:59;39.40;62.50
42803;DHT22;28447;48.682;9.022;2022-08-03T12:56:25;40.50;66.00
42803;DHT22;28447;48.682;9.022;2022-08-03T12:58:51;41.20;66.10
42803;DHT22;28447;48.682;9.022;2022-08-03T13:01:17;41.90;63.40
42803;DHT22;28447;48.682;9.022;2022-08-03T13:03:49;41.50;64.00
42803;DHT22;28447;48.682;9.022;2022-08-03T13:06:17;39.00;63.40
42803;DHT22;28447;48.682;9.022;2022-08-03T13:08:43;38.20;63.70
42803;DHT22;28447;48.682;9.022;2022-08-03T13:13:45;37.90;69.40
42803;DHT22;28447;48.682;9.022;2022-08-03T13:16:11;38.50;62.90
42803;DHT22;28447;48.682;9.022;2022-08-03T13:18:37;38.70;65.50
42803;DHT22;28447;48.682;9.022;2022-08-03T13:21:02;36.90;64.40
42803;DHT22;28447;48.682;9.022;2022-08-03T13:23:28;36.40;66.10
42803;DHT22;28447;48.682;9.022;2022-08-03T13:25:53;38.80;66.10
42803;DHT22;28447;48.682;9.022;2022-08-03T13:28:19;40.30;64.20
42803;DHT22;28447;48.682;9.022;2022-08-03T13:30:45;40.70;60.10
42803;DHT22;28447;48.682;9.022;2022-08-03T13:33:10;42.20;61.80
42803;DHT22;28447;48.682;9.022;2022-08-03T13:35:36;42.70;60.80
42803;DHT22;28447;48.682;9.022;2022-08-03T13:38:01;43.60;59.10
42803;DHT22;28447;48.682;9.022;2022-08-03T13:40:27;43.50;60.00
42803;DHT22;28447;48.682;9.022;2022-08-03T13:42:55;41.20;60.20
42803;DHT22;28447;48.682;9.022;2022-08-03T13:47:47;43.00;60.00
42803;DHT22;28447;48.682;9.022;2022-08-03T13:50:13;43.50;57.40
42803;DHT22;28447;48.682;9.022;2022-08-03T13:52:39;40.40;56.50
42803;DHT22;28447;48.682;9.022;2022-08-03T13:55:06;38.30;57.20
42803;DHT22;28447;48.682;9.022;2022-08-03T13:57:32;38.40;56.30
42803;DHT22;28447;48.682;9.022;2022-08-03T13:59:58;40.70;59.50
42803;DHT22;28447;48.682;9.022;2022-08-03T14:02:24;39.80;55.90
42803;DHT22;28447;48.682;9.022;2022-08-03T14:04:49;40.80;59.30
42803;DHT22;28447;48.682;9.022;2022-08-03T14:07:15;41.80;58.70
42803;DHT22;28447;48.682;9.022;2022-08-03T14:09:40;42.70;58.60
42803;DHT22;28447;48.682;9.022;2022-08-03T14:12:06;42.70;59.90
42803;DHT22;28447;48.682;9.022;2022-08-03T14:14:32;42.80;57.70
42803;DHT22;28447;48.682;9.022;2022-08-03T14:16:58;42.30;55.90
42803;DHT22;28447;48.682;9.022;2022-08-03T14:19:23;41.90;58.20
42803;DHT22;28447;48.682;9.022;2022-08-03T14:21:49;43.20;58.00
42803;DHT22;28447;48.682;9.022;2022-08-03T14:24:14;43.10;57.30
42803;DHT22;28447;48.682;9.022;2022-08-03T14:26:40;42.30;53.70
42803;DHT22;28447;48.682;9.022;2022-08-03T14:29:06;41.20;55.70
42803;DHT22;28447;48.682;9.022;2022-08-03T14:31:31;41.80;57.70
42803;DHT22;28447;48.682;9.022;2022-08-03T14:33:57;41.90;59.20
42803;DHT22;28447;48.682;9.022;2022-08-03T14:36:22;41.90;60.00
42803;DHT22;28447;48.682;9.022;2022-08-03T14:38:48;42.50;59.10
42803;DHT22;28447;48.682;9.022;2022-08-03T14:41:14;43.00;57.00
42803;DHT22;28447;48.682;9.022;2022-08-03T14:43:40;42.40;56.30
42803;DHT22;28447;48.682;9.022;2022-08-03T14:46:05;42.00;56.30
42803;DHT22;28447;48.682;9.022;2022-08-03T14:48:31;42.50;56.40
42803;DHT22;28447;48.682;9.022;2022-08-03T14:50:57;43.50;56.10
42803;DHT22;28447;48.682;9.022;2022-08-03T14:53:23;43.30;54.80
42803;DHT22;28447;48.682;9.022;2022-08-03T14:55:49;42.70;55.00
42803;DHT22;28447;48.682;9.022;2022-08-03T14:58:15;39.60;57.40
42803;DHT22;28447;48.682;9.022;2022-08-03T15:00:41;41.10;57.00
42803;DHT22;28447;48.682;9.022;2022-08-03T15:03:07;41.60;57.20
42803;DHT22;28447;48.682;9.022;2022-08-03T15:05:32;42.90;55.40
42803;DHT22;28447;48.682;9.022;2022-08-03T15:07:58;42.10;55.40
42803;DHT22;28447;48.682;9.022;2022-08-03T15:10:23;43.30;58.50
42803;DHT22;28447;48.682;9.022;2022-08-03T15:12:49;43.70;55.50
42803;DHT22;28447;48.682;9.022;2022-08-03T15:15:15;41.70;55.50
42803;DHT22;28447;48.682;9.022;2022-08-03T15:17:41;41.40;53.70
42803;DHT22;28447;48.682;9.022;2022-08-03T15:20:07;38.10;57.80
42803;DHT22;28447;48.682;9.022;2022-08-03T15:22:33;39.80;60.40
42803;DHT22;28447;48.682;9.022;2022-08-03T15:25:02;41.10;57.50
42803;DHT22;28447;48.682;9.022;2022-08-03T15:27:28;41.70;58.00
42803;DHT22;28447;48.682;9.022;2022-08-03T15:29:54;42.50;57.70
42803;DHT22;28447;48.682;9.022;2022-08-03T15:32:19;42.90;56.80
42803;DHT22;28447;48.682;9.022;2022-08-03T15:34:46;42.70;56.40
42803;DHT22;28447;48.682;9.022;2022-08-03T15:37:11;41.70;56.80
42803;DHT22;28447;48.682;9.022;2022-08-03T15:39:37;42.20;57.60
42803;DHT22;28447;48.682;9.022;2022-08-03T15:42:03;41.80;57.30
42803;DHT22;28447;48.682;9.022;2022-08-03T15:44:28;42.00;55.20
42803;DHT22;28447;48.682;9.022;2022-08-03T15:46:54;42.00;58.90
42803;DHT22;28447;48.682;9.022;2022-08-03T15:49:20;41.60;55.50
42803;DHT22;28447;48.682;9.022;2022-08-03T15:51:46;41.80;57.40
42803;DHT22;28447;48.682;9.022;2022-08-03T15:54:11;41.60;58.40
42803;DHT22;28447;48.682;9.022;2022-08-03T15:56:37;42.50;56.40
42803;DHT22;28447;48.682;9.022;2022-08-03T15:59:03;42.50;58.90
42803;DHT22;28447;48.682;9.022;2022-08-03T16:01:29;40.90;55.70
42803;DHT22;28447;48.682;9.022;2022-08-03T16:03:55;41.60;57.90
42803;DHT22;28447;48.682;9.022;2022-08-03T16:06:21;41.40;58.80
42803;DHT22;28447;48.682;9.022;2022-08-03T16:08:46;41.50;55.90
42803;DHT22;28447;48.682;9.022;2022-08-03T16:11:12;41.80;57.00
42803;DHT22;28447;48.682;9.022;2022-08-03T16:13:38;41.70;54.50
42803;DHT22;28447;48.682;9.022;2022-08-03T16:16:04;41.60;55.60
42803;DHT22;28447;48.682;9.022;2022-08-03T16:18:29;41.30;58.90
42803;DHT22;28447;48.682;9.022;2022-08-03T16:20:56;41.60;57.30
42803;DHT22;28447;48.682;9.022;2022-08-03T16:23:23;42.40;57.10
42803;DHT22;28447;48.682;9.022;2022-08-03T16:25:49;41.90;60.20
42803;DHT22;28447;48.682;9.022;2022-08-03T16:28:14;41.30;57.30
42803;DHT22;28447;48.682;9.022;2022-08-03T16:30:41;39.30;60.70
42803;DHT22;28447;48.682;9.022;2022-08-03T16:33:07;38.80;60.20
42803;DHT22;28447;48.682;9.022;2022-08-03T16:35:33;39.10;63.40
42803;DHT22;28447;48.682;9.022;2022-08-03T16:37:59;38.60;65.80
42803;DHT22;28447;48.682;9.022;2022-08-03T16:40:25;38.60;63.60
42803;DHT22;28447;48.682;9.022;2022-08-03T16:42:51;39.30;60.00
42803;DHT22;28447;48.682;9.022;2022-08-03T16:45:16;40.20;62.10
42803;DHT22;28447;48.682;9.022;2022-08-03T16:47:42;40.10;61.90
42803;DHT22;28447;48.682;9.022;2022-08-03T16:50:08;40.60;58.40
42803;DHT22;28447;48.682;9.022;2022-08-03T16:52:34;40.50;58.80
42803;DHT22;28447;48.682;9.022;2022-08-03T16:55:01;40.00;58.90
42803;DHT22;28447;48.682;9.022;2022-08-03T16:57:27;38.80;62.50
42803;DHT22;28447;48.682;9.022;2022-08-03T16:59:53;37.70;66.40
42803;DHT22;28447;48.682;9.022;2022-08-03T17:02:27;37.80;66.00
42803;DHT22;28447;48.682;9.022;2022-08-03T17:04:54;37.00;62.80
42803;DHT22;28447;48.682;9.022;2022-08-03T17:07:21;36.50;64.40
42803;DHT22;28447;48.682;9.022;2022-08-03T17:09:47;35.80;64.70
42803;DHT22;28447;48.682;9.022;2022-08-03T17:12:13;35.00;67.90
42803;DHT22;28447;48.682;9.022;2022-08-03T17:14:39;35.20;68.10
42803;DHT22;28447;48.682;9.022;2022-08-03T17:17:15;34.90;70.20
42803;DHT22;28447;48.682;9.022;2022-08-03T17:19:41;34.80;71.20
42803;DHT22;28447;48.682;9.022;2022-08-03T17:22:19;34.20;69.50
42803;DHT22;28447;48.682;9.022;2022-08-03T17:24:52;33.70;69.80
42803;DHT22;28447;48.682;9.022;2022-08-03T17:27:23;33.60;69.10
42803;DHT22;28447;48.682;9.022;2022-08-03T17:29:58;33.50;72.50
42803;DHT22;28447;48.682;9.022;2022-08-03T17:32:24;33.50;70.40
42803;DHT22;28447;48.682;9.022;2022-08-03T17:34:50;33.20;72.40
42803;DHT22;28447;48.682;9.022;2022-08-03T17:37:17;32.90;70.00
42803;DHT22;28447;48.682;9.022;2022-08-03T17:39:45;32.70;73.40
42803;DHT22;28447;48.682;9.022;2022-08-03T17:42:12;32.40;73.20
42803;DHT22;28447;48.682;9.022;2022-08-03T17:44:38;32.60;71.80
42803;DHT22;28447;48.682;9.022;2022-08-03T17:47:07;32.80;70.90
42803;DHT22;28447;48.682;9.022;2022-08-03T17:49:33;32.50;71.30
42803;DHT22;28447;48.682;9.022;2022-08-03T17:52:22;32.10;72.90
42803;DHT22;28447;48.682;9.022;2022-08-03T17:57:56;31.90;73.20
42803;DHT22;28447;48.682;9.022;2022-08-03T18:00:25;31.60;74.80
42803;DHT22;28447;48.682;9.022;2022-08-03T18:05:56;31.50;76.20
42803;DHT22;28447;48.682;9.022;2022-08-03T18:08:30;31.50;75.00
42803;DHT22;28447;48.682;9.022;2022-08-03T18:11:08;31.50;74.10
42803;DHT22;28447;48.682;9.022;2022-08-03T18:14:23;31.40;74.40
42803;DHT22;28447;48.682;9.022;2022-08-03T18:16:43;31.20;76.20
42803;DHT22;28447;48.682;9.022;2022-08-03T18:19:09;31.00;77.00
42803;DHT22;28447;48.682;9.022;2022-08-03T18:21:36;30.60;79.00
42803;DHT22;28447;48.682;9.022;2022-08-03T18:24:03;30.60;78.40
42803;DHT22;28447;48.682;9.022;2022-08-03T18:26:30;30.50;80.50
42803;DHT22;28447;48.682;9.022;2022-08-03T18:28:56;30.50;80.10
42803;DHT22;28447;48.682;9.022;2022-08-03T18:31:25;30.60;77.70
42803;DHT22;28447;48.682;9.022;2022-08-03T18:33:52;30.30;78.80
42803;DHT22;28447;48.682;9.022;2022-08-03T18:36:19;30.20;80.40
42803;DHT22;28447;48.682;9.022;2022-08-03T18:38:47;30.20;79.40
42803;DHT22;28447;48.682;9.022;2022-08-03T18:41:13;30.00;81.30
42803;DHT22;28447;48.682;9.022;2022-08-03T18:43:41;29.90;80.70
42803;DHT22;28447;48.682;9.022;2022-08-03T18:46:30;29.60;82.60
42803;DHT22;28447;48.682;9.022;2022-08-03T18:49:23;29.60;82.10
42803;DHT22;28447;48.682;9.022;2022-08-03T18:52:04;29.50;82.90
42803;DHT22;28447;48.682;9.022;2022-08-03T18:54:40;29.40;84.00
42803;DHT22;28447;48.682;9.022;2022-08-03T18:57:10;29.30;85.70
42803;DHT22;28447;48.682;9.022;2022-08-03T18:59:58;29.00;85.20